Terminal Aerodrome Forecast
Issued by NWS

Home | Current Version | Previous Version | Text Only | Print | Product List | Glossary On
Versions: 1 2 3 4 5 6 7 8 9 10 11 12 13 14 15 16 17
000
FTUS44 KSJT 201623 AAC
TAFSOA
TAF AMD
KSOA 201623Z 2016/2112 20010KT P6SM BKN005 BKN022
     FM201800 20011G18KT P6SM SKC
     FM210000 19004KT P6SM SKC
     FM210800 18008KT P6SM BKN006=

USA.gov is the U.S. government's official web portal to all federal, state and local government web resources and services.